Time;durP1;ratioP1;P1;durP2;ratioP2;P2;SDS_P1;SDS_P2;PMS_P1;PMS_P2;Temp;Humidity;BMP_temperature;BMP_pressure;BME280_temperature;BME280_humidity;BME280_pressure;Samples;Min_cycle;Max_cycle;Signal;HPM_P1;HPM_P2
2024/03/20 00:01:35;;;;;;;2.10;1.90;;;;;;;;;;5094366;28;20381;-81
2024/03/20 00:04:04;;;;;;;2.53;1.70;;;;;;;;;;5094601;28;20716;-81
2024/03/20 00:06:32;;;;;;;2.90;1.98;;;;;;;;;;5094718;28;20382;-81
2024/03/20 00:08:58;;;;;;;2.22;1.88;;;;;;;;;;5076728;28;20793;-81
2024/03/20 00:11:24;;;;;;;2.30;1.70;;;;;;;;;;5094277;28;20401;-80
2024/03/20 00:13:50;;;;;;;2.05;1.85;;;;;;;;;;5093980;28;20413;-80
2024/03/20 00:16:16;;;;;;;2.10;1.70;;;;;;;;;;5094472;28;20726;-82
2024/03/20 00:18:42;;;;;;;2.00;1.73;;;;;;;;;;5093735;28;20382;-82
2024/03/20 00:21:08;;;;;;;1.85;1.70;;;;;;;;;;5094377;28;20404;-82
2024/03/20 00:23:34;;;;;;;2.45;1.70;;;;;;;;;;5093453;28;20382;-82
2024/03/20 00:26:00;;;;;;;1.58;1.48;;;;;;;;;;5093910;28;20735;-82
2024/03/20 00:28:27;;;;;;;2.67;1.70;;;;;;;;;;5093259;28;20389;-81
2024/03/20 00:30:53;;;;;;;2.03;1.60;;;;;;;;;;5093155;28;20442;-81
2024/03/20 00:33:20;;;;;;;2.10;1.90;;;;;;;;;;5108002;28;20834;-82
2024/03/20 00:35:46;;;;;;;1.70;1.50;;;;;;;;;;5093869;28;20393;-82
2024/03/20 00:38:12;;;;;;;1.88;1.70;;;;;;;;;;5093712;28;20469;-82
2024/03/20 00:40:38;;;;;;;2.70;1.40;;;;;;;;;;5094203;28;20404;-81
2024/03/20 00:43:04;;;;;;;1.70;1.60;;;;;;;;;;5094300;28;20921;-82
2024/03/20 00:45:30;;;;;;;2.03;1.85;;;;;;;;;;5093875;28;20393;-82
2024/03/20 00:47:56;;;;;;;2.63;2.20;;;;;;;;;;5093593;28;20382;-81
2024/03/20 00:50:22;;;;;;;2.30;2.10;;;;;;;;;;5093742;28;20382;-81
2024/03/20 00:52:48;;;;;;;3.67;2.63;;;;;;;;;;5093467;28;20414;-81
2024/03/20 00:55:14;;;;;;;2.25;2.05;;;;;;;;;;5093800;28;20453;-81
2024/03/20 00:57:40;;;;;;;2.20;2.00;;;;;;;;;;5093682;28;20373;-82
2024/03/20 01:00:06;;;;;;;2.17;1.98;;;;;;;;;;5093821;28;20374;-81
2024/03/20 01:02:32;;;;;;;2.45;1.50;;;;;;;;;;5093489;28;20378;-81
2024/03/20 01:04:59;;;;;;;1.80;1.63;;;;;;;;;;5093615;28;20390;-81
2024/03/20 01:07:25;;;;;;;1.70;1.55;;;;;;;;;;5093102;28;20848;-81
2024/03/20 01:09:51;;;;;;;2.13;1.73;;;;;;;;;;5093444;28;20413;-81
2024/03/20 01:12:17;;;;;;;2.17;1.83;;;;;;;;;;5093451;28;21059;-81
2024/03/20 01:14:45;;;;;;;2.30;2.10;;;;;;;;;;5093433;28;20362;-81
2024/03/20 01:17:15;;;;;;;1.98;1.52;;;;;;;;;;5093456;28;20743;-82
2024/03/20 01:19:42;;;;;;;2.10;1.60;;;;;;;;;;5093959;28;20419;-81
2024/03/20 01:22:08;;;;;;;1.90;1.40;;;;;;;;;;5093698;28;20705;-81
2024/03/20 01:24:34;;;;;;;3.70;2.17;;;;;;;;;;5093901;28;20440;-82
2024/03/20 01:27:00;;;;;;;1.70;1.60;;;;;;;;;;5093471;28;20427;-81
2024/03/20 01:29:26;;;;;;;2.93;2.60;;;;;;;;;;5093813;28;20370;-81
2024/03/20 01:31:52;;;;;;;4.28;3.60;;;;;;;;;;5098566;28;20416;-81
2024/03/20 01:34:18;;;;;;;5.63;4.32;;;;;;;;;;5102270;28;20382;-81
2024/03/20 01:36:44;;;;;;;7.25;6.13;;;;;;;;;;5096839;28;20913;-82
2024/03/20 01:39:10;;;;;;;7.57;6.32;;;;;;;;;;5095618;28;20449;-81
2024/03/20 01:41:36;;;;;;;6.53;5.78;;;;;;;;;;5096268;28;20384;-81
2024/03/20 01:44:02;;;;;;;5.00;4.50;;;;;;;;;;5096737;28;20381;-81
2024/03/20 01:46:35;;;;;;;4.10;3.38;;;;;;;;;;5097296;28;20384;-81
2024/03/20 01:49:01;;;;;;;2.45;2.20;;;;;;;;;;5096827;28;20374;-81
2024/03/20 01:51:28;;;;;;;2.63;2.10;;;;;;;;;;5096405;28;20407;-81
2024/03/20 01:53:56;;;;;;;2.30;1.90;;;;;;;;;;5096444;28;20413;-81
2024/03/20 01:56:22;;;;;;;2.80;1.92;;;;;;;;;;5097160;28;20793;-81
2024/03/20 01:58:48;;;;;;;1.83;1.60;;;;;;;;;;5096514;28;20370;-81
2024/03/20 02:01:14;;;;;;;2.10;1.80;;;;;;;;;;5097235;28;20739;-82
2024/03/20 02:03:42;;;;;;;2.33;1.67;;;;;;;;;;5096782;28;20847;-81
2024/03/20 02:06:19;;;;;;;2.10;1.90;;;;;;;;;;5096643;28;20416;-81
2024/03/20 02:08:45;;;;;;;2.00;1.80;;;;;;;;;;5111453;28;20361;-81
2024/03/20 02:11:11;;;;;;;2.45;1.90;;;;;;;;;;5096230;28;20478;-81
2024/03/20 02:13:43;;;;;;;2.70;2.00;;;;;;;;;;5096668;28;20468;-81
2024/03/20 02:16:09;;;;;;;2.10;1.70;;;;;;;;;;5096654;28;20741;-81
2024/03/20 02:18:35;;;;;;;1.80;1.70;;;;;;;;;;5089402;28;20454;-81
2024/03/20 02:21:06;;;;;;;2.47;1.90;;;;;;;;;;5076526;28;20379;-81
2024/03/20 02:23:32;;;;;;;2.00;1.80;;;;;;;;;;5096552;28;20374;-81
2024/03/20 02:25:58;;;;;;;1.77;1.67;;;;;;;;;;5096266;28;20378;-81
2024/03/20 02:28:24;;;;;;;2.10;1.90;;;;;;;;;;5095558;28;20385;-81
2024/03/20 02:30:50;;;;;;;2.20;1.67;;;;;;;;;;5095746;28;20406;-81
2024/03/20 02:33:16;;;;;;;2.40;1.70;;;;;;;;;;5110497;28;20425;-81
2024/03/20 02:35:42;;;;;;;2.38;1.90;;;;;;;;;;5096078;28;20728;-81
2024/03/20 02:38:08;;;;;;;2.90;2.58;;;;;;;;;;5096216;28;20382;-81
2024/03/20 02:40:34;;;;;;;2.60;2.00;;;;;;;;;;5096425;28;20382;-81
2024/03/20 02:43:00;;;;;;;3.00;2.15;;;;;;;;;;5094524;28;20396;-81
2024/03/20 02:45:26;;;;;;;2.28;1.88;;;;;;;;;;5095831;28;20381;-81
2024/03/20 02:47:52;;;;;;;2.20;2.00;;;;;;;;;;5095584;28;20389;-81
2024/03/20 02:50:18;;;;;;;2.13;1.95;;;;;;;;;;5110709;28;20374;-81
2024/03/20 02:52:44;;;;;;;2.87;1.80;;;;;;;;;;5095911;28;20965;-81
2024/03/20 02:55:10;;;;;;;2.33;2.08;;;;;;;;;;5095556;28;20374;-81
2024/03/20 02:57:36;;;;;;;4.00;3.60;;;;;;;;;;5095420;28;20848;-81
2024/03/20 03:00:03;;;;;;;3.58;3.28;;;;;;;;;;5095375;28;20405;-81
2024/03/20 03:02:29;;;;;;;3.05;2.75;;;;;;;;;;5095540;28;20378;-81
2024/03/20 03:04:55;;;;;;;2.72;2.42;;;;;;;;;;5095869;28;20393;-81
2024/03/20 03:07:23;;;;;;;2.50;2.30;;;;;;;;;;5095176;28;20410;-81
2024/03/20 03:09:49;;;;;;;2.47;2.28;;;;;;;;;;5095753;28;20444;-81
2024/03/20 03:12:15;;;;;;;2.35;2.15;;;;;;;;;;5095306;28;20434;-81
2024/03/20 03:14:42;;;;;;;1.88;1.67;;;;;;;;;;5095253;28;20393;-81
2024/03/20 03:17:08;;;;;;;1.75;1.63;;;;;;;;;;5109922;28;20418;-81
2024/03/20 03:19:34;;;;;;;2.40;2.20;;;;;;;;;;5095524;28;20386;-81
2024/03/20 03:22:00;;;;;;;2.40;2.20;;;;;;;;;;5095332;28;20389;-81
2024/03/20 03:24:26;;;;;;;2.40;2.20;;;;;;;;;;5094877;28;20845;-81
2024/03/20 03:26:52;;;;;;;3.20;2.20;;;;;;;;;;5095301;28;20378;-81
2024/03/20 03:29:18;;;;;;;3.22;2.10;;;;;;;;;;5095150;28;20382;-81
2024/03/20 03:31:44;;;;;;;2.22;2.03;;;;;;;;;;5099135;28;20485;-81
2024/03/20 03:34:10;;;;;;;3.28;2.20;;;;;;;;;;5104335;28;20447;-81
2024/03/20 03:36:36;;;;;;;2.33;2.13;;;;;;;;;;5094775;28;20386;-81
2024/03/20 03:39:05;;;;;;;2.80;2.47;;;;;;;;;;5094577;28;20444;-81
2024/03/20 03:41:32;;;;;;;3.03;2.80;;;;;;;;;;5108854;28;20390;-81
2024/03/20 03:43:58;;;;;;;3.95;2.80;;;;;;;;;;5095041;28;20374;-81
2024/03/20 03:46:24;;;;;;;3.25;2.95;;;;;;;;;;5093648;28;20817;-81
2024/03/20 03:48:50;;;;;;;3.20;2.90;;;;;;;;;;5094486;28;20374;-81
2024/03/20 03:51:16;;;;;;;3.03;2.72;;;;;;;;;;5095313;28;20394;-81
2024/03/20 03:53:42;;;;;;;2.97;2.78;;;;;;;;;;5095079;28;20374;-81
2024/03/20 03:56:08;;;;;;;2.50;2.30;;;;;;;;;;5094871;28;20381;-81
2024/03/20 03:58:34;;;;;;;2.85;2.60;;;;;;;;;;5094225;28;20912;-81
2024/03/20 04:01:01;;;;;;;2.42;2.08;;;;;;;;;;5094346;28;20384;-81
2024/03/20 04:03:27;;;;;;;2.57;2.37;;;;;;;;;;5094295;28;20831;-81
2024/03/20 04:05:56;;;;;;;2.83;2.58;;;;;;;;;;5094488;28;20832;-81
2024/03/20 04:08:22;;;;;;;3.20;2.90;;;;;;;;;;5094056;28;20382;-81
2024/03/20 04:10:48;;;;;;;3.60;2.70;;;;;;;;;;5094205;28;20469;-81
2024/03/20 04:13:14;;;;;;;2.78;2.58;;;;;;;;;;5094234;28;20405;-81
2024/03/20 04:15:40;;;;;;;2.60;2.40;;;;;;;;;;5094332;28;20878;-81
2024/03/20 04:18:06;;;;;;;2.25;2.05;;;;;;;;;;5094277;28;20427;-81
2024/03/20 04:20:32;;;;;;;4.15;2.22;;;;;;;;;;5094237;28;20381;-81
2024/03/20 04:22:58;;;;;;;2.72;2.53;;;;;;;;;;5107447;28;20402;-81
2024/03/20 04:25:28;;;;;;;3.85;2.90;;;;;;;;;;5094219;28;20440;-81
2024/03/20 04:27:54;;;;;;;3.17;2.87;;;;;;;;;;5094045;28;20414;-81
2024/03/20 04:30:20;;;;;;;2.90;2.50;;;;;;;;;;5093901;28;20428;-81
2024/03/20 04:32:47;;;;;;;2.35;2.08;;;;;;;;;;5101671;28;20565;-81
2024/03/20 04:35:13;;;;;;;2.97;2.33;;;;;;;;;;5094054;28;20831;-81
2024/03/20 04:37:39;;;;;;;3.60;2.40;;;;;;;;;;5093884;28;20477;-81
2024/03/20 04:40:06;;;;;;;2.55;2.35;;;;;;;;;;5085327;28;20393;-81
2024/03/20 04:42:33;;;;;;;3.47;2.47;;;;;;;;;;5084840;28;20382;-81
2024/03/20 04:44:59;;;;;;;3.17;2.60;;;;;;;;;;5091070;28;20484;-81
2024/03/20 04:47:25;;;;;;;2.92;2.30;;;;;;;;;;5109678;28;20808;-81
2024/03/20 04:49:51;;;;;;;2.80;2.47;;;;;;;;;;5104591;28;20465;-81
2024/03/20 04:52:17;;;;;;;2.92;2.60;;;;;;;;;;5108883;28;20472;-81
2024/03/20 04:54:43;;;;;;;2.90;2.60;;;;;;;;;;5106721;28;20864;-81
2024/03/20 04:57:09;;;;;;;2.83;2.60;;;;;;;;;;5107294;28;20381;-81
2024/03/20 04:59:35;;;;;;;3.00;2.53;;;;;;;;;;5108107;28;20381;-81
2024/03/20 05:02:03;;;;;;;3.70;2.20;;;;;;;;;;5104892;28;20916;-81
2024/03/20 05:04:29;;;;;;;4.53;2.45;;;;;;;;;;5109238;28;20842;-81
2024/03/20 05:06:55;;;;;;;2.70;2.50;;;;;;;;;;5093250;28;20439;-81
2024/03/20 05:09:21;;;;;;;2.60;2.40;;;;;;;;;;5111806;28;20392;-81
2024/03/20 05:11:47;;;;;;;2.85;2.53;;;;;;;;;;5110392;28;20393;-81
2024/03/20 05:14:14;;;;;;;2.72;2.53;;;;;;;;;;5111600;28;20373;-81
2024/03/20 05:16:40;;;;;;;2.90;2.30;;;;;;;;;;5093610;28;20736;-81
2024/03/20 05:19:07;;;;;;;2.78;2.47;;;;;;;;;;5105344;28;20378;-81
2024/03/20 05:21:33;;;;;;;2.97;2.70;;;;;;;;;;5113088;28;20475;-81
2024/03/20 05:23:59;;;;;;;3.70;2.40;;;;;;;;;;5107864;28;20426;-81
2024/03/20 05:26:25;;;;;;;2.63;2.42;;;;;;;;;;5112549;28;20372;-81
2024/03/20 05:28:51;;;;;;;2.83;2.63;;;;;;;;;;5108779;28;20382;-81
2024/03/20 05:31:27;;;;;;;5.47;2.42;;;;;;;;;;5111866;28;20816;-81
2024/03/20 05:33:54;;;;;;;2.53;2.33;;;;;;;;;;5109539;28;20735;-81
2024/03/20 05:36:19;;;;;;;3.72;2.30;;;;;;;;;;5096660;28;20386;-81
2024/03/20 05:38:45;;;;;;;3.35;2.63;;;;;;;;;;5096510;28;20875;-81
2024/03/20 05:41:11;;;;;;;3.97;2.78;;;;;;;;;;5096516;28;20409;-81
2024/03/20 05:43:37;;;;;;;3.00;2.50;;;;;;;;;;5096743;28;20803;-81
2024/03/20 05:46:03;;;;;;;3.22;3.00;;;;;;;;;;5097111;28;20392;-81
2024/03/20 05:48:30;;;;;;;5.25;2.90;;;;;;;;;;5096670;28;20920;-81
2024/03/20 05:50:56;;;;;;;3.97;2.83;;;;;;;;;;5097321;28;20386;-81
2024/03/20 05:53:22;;;;;;;3.38;2.50;;;;;;;;;;5097147;28;20876;-81
2024/03/20 05:55:50;;;;;;;3.08;2.55;;;;;;;;;;5097168;28;20381;-82
2024/03/20 05:58:16;;;;;;;2.75;2.55;;;;;;;;;;5096702;28;20405;-81
2024/03/20 06:00:42;;;;;;;4.50;2.97;;;;;;;;;;5096765;28;20381;-81
2024/03/20 06:03:08;;;;;;;3.50;3.05;;;;;;;;;;5096420;28;20388;-81
2024/03/20 06:05:35;;;;;;;3.30;3.00;;;;;;;;;;5096659;28;20373;-81
2024/03/20 06:08:01;;;;;;;3.42;2.70;;;;;;;;;;5095961;28;20860;-81
2024/03/20 06:10:27;;;;;;;5.07;2.90;;;;;;;;;;5096584;28;20382;-82
2024/03/20 06:12:52;;;;;;;3.05;2.85;;;;;;;;;;5096694;28;20398;-82
2024/03/20 06:15:18;;;;;;;3.15;2.63;;;;;;;;;;5096869;28;20382;-81
2024/03/20 06:17:44;;;;;;;2.90;2.67;;;;;;;;;;5095651;28;20396;-83
2024/03/20 06:20:11;;;;;;;3.25;3.00;;;;;;;;;;5083728;28;20467;-82
2024/03/20 06:22:36;;;;;;;3.35;2.70;;;;;;;;;;5093750;28;20386;-81
2024/03/20 06:25:06;;;;;;;3.30;2.60;;;;;;;;;;5095900;28;20381;-82
2024/03/20 06:27:33;;;;;;;3.22;2.92;;;;;;;;;;5096224;28;20857;-81
2024/03/20 06:29:59;;;;;;;4.40;4.00;;;;;;;;;;5096789;28;20382;-82
2024/03/20 06:32:25;;;;;;;3.83;3.53;;;;;;;;;;5106053;28;20569;-81
2024/03/20 06:34:52;;;;;;;3.78;3.47;;;;;;;;;;5099726;28;20389;-81
2024/03/20 06:37:18;;;;;;;4.20;3.80;;;;;;;;;;5096236;28;20388;-81
2024/03/20 06:39:45;;;;;;;4.10;3.80;;;;;;;;;;5095058;28;20419;-81
2024/03/20 06:42:20;;;;;;;5.60;3.90;;;;;;;;;;5095857;28;20408;-82
2024/03/20 06:44:47;;;;;;;4.25;3.95;;;;;;;;;;5096097;28;20393;-82
2024/03/20 06:47:13;;;;;;;4.22;3.50;;;;;;;;;;5096182;28;20370;-82
2024/03/20 06:49:39;;;;;;;4.75;4.35;;;;;;;;;;5096101;28;20389;-82
2024/03/20 06:52:05;;;;;;;4.10;3.80;;;;;;;;;;5096209;28;20398;-82
2024/03/20 06:54:31;;;;;;;5.00;4.57;;;;;;;;;;5096113;28;20820;-82
2024/03/20 06:57:03;;;;;;;5.30;4.83;;;;;;;;;;5110936;28;20380;-82
2024/03/20 06:59:30;;;;;;;5.60;5.05;;;;;;;;;;5096727;28;20389;-82
2024/03/20 07:01:57;;;;;;;6.18;5.22;;;;;;;;;;5095936;28;20390;-82
2024/03/20 07:04:24;;;;;;;5.00;4.60;;;;;;;;;;5095638;28;20417;-82
2024/03/20 07:06:50;;;;;;;4.90;4.50;;;;;;;;;;5095621;28;20777;-82
2024/03/20 07:09:16;;;;;;;5.07;4.68;;;;;;;;;;5095676;28;20453;-82
2024/03/20 07:11:42;;;;;;;5.28;4.85;;;;;;;;;;5106980;28;20400;-82
2024/03/20 07:14:08;;;;;;;5.25;4.78;;;;;;;;;;5098437;28;20378;-82
2024/03/20 07:16:34;;;;;;;5.37;4.90;;;;;;;;;;5095704;28;20443;-82
2024/03/20 07:19:00;;;;;;;5.70;5.20;;;;;;;;;;5095701;28;20469;-82
2024/03/20 07:21:26;;;;;;;7.60;6.70;;;;;;;;;;5095763;28;20385;-82
2024/03/20 07:23:52;;;;;;;7.70;6.20;;;;;;;;;;5095681;28;20382;-82
2024/03/20 07:26:19;;;;;;;7.65;6.95;;;;;;;;;;5095562;28;20476;-81
2024/03/20 07:28:45;;;;;;;10.18;9.18;;;;;;;;;;5095046;28;20374;-82
2024/03/20 07:31:11;;;;;;;8.50;7.65;;;;;;;;;;5098948;28;20449;-82
2024/03/20 07:33:37;;;;;;;16.07;14.47;;;;;;;;;;5114718;28;20423;-82
2024/03/20 07:36:03;;;;;;;15.68;14.27;;;;;;;;;;5103526;28;20378;-82
2024/03/20 07:38:29;;;;;;;16.17;14.77;;;;;;;;;;5095178;28;20385;-82
2024/03/20 07:40:56;;;;;;;13.98;12.68;;;;;;;;;;5095166;28;20370;-82
2024/03/20 07:43:22;;;;;;;14.18;12.77;;;;;;;;;;5095072;28;20462;-82
2024/03/20 07:45:48;;;;;;;14.32;13.02;;;;;;;;;;5095424;28;20379;-82
2024/03/20 07:48:15;;;;;;;13.70;12.50;;;;;;;;;;5094999;28;20374;-82
2024/03/20 07:50:41;;;;;;;14.10;12.70;;;;;;;;;;5095787;28;20378;-82
2024/03/20 07:53:07;;;;;;;12.45;11.30;;;;;;;;;;5094924;28;20735;-82
2024/03/20 07:55:33;;;;;;;13.13;11.93;;;;;;;;;;5094937;28;20774;-82
2024/03/20 07:57:59;;;;;;;14.52;13.20;;;;;;;;;;5094695;28;20386;-82
2024/03/20 08:00:28;;;;;;;12.13;11.02;;;;;;;;;;5094671;28;20414;-82
2024/03/20 08:02:58;;;;;;;12.00;11.00;;;;;;;;;;5094577;28;20435;-82
2024/03/20 08:05:27;;;;;;;10.50;9.57;;;;;;;;;;5094095;28;20462;-82
2024/03/20 08:07:53;;;;;;;10.57;9.68;;;;;;;;;;5103137;28;20376;-82
2024/03/20 08:10:19;;;;;;;10.55;9.60;;;;;;;;;;5100671;28;20520;-82
2024/03/20 08:12:46;;;;;;;11.65;10.50;;;;;;;;;;5094493;28;20402;-82
2024/03/20 08:15:12;;;;;;;11.45;10.27;;;;;;;;;;5095240;28;20406;-82
2024/03/20 08:17:38;;;;;;;11.15;9.55;;;;;;;;;;5094644;28;20374;-82
2024/03/20 08:20:05;;;;;;;11.07;10.07;;;;;;;;;;5094601;28;20374;-82
2024/03/20 08:22:31;;;;;;;11.87;9.33;;;;;;;;;;5094443;28;20457;-82
2024/03/20 08:24:57;;;;;;;11.35;10.25;;;;;;;;;;5094777;28;20390;-82
2024/03/20 08:27:26;;;;;;;9.45;8.45;;;;;;;;;;5094213;28;20426;-82
2024/03/20 08:29:54;;;;;;;9.82;8.90;;;;;;;;;;5094008;28;20425;-82
2024/03/20 08:32:21;;;;;;;15.23;10.07;;;;;;;;;;5103229;28;20468;-82
2024/03/20 08:34:47;;;;;;;12.77;10.23;;;;;;;;;;5098875;28;20731;-82
2024/03/20 08:37:13;;;;;;;11.27;10.07;;;;;;;;;;5094122;28;20374;-82
2024/03/20 08:39:39;;;;;;;11.07;9.85;;;;;;;;;;5108039;28;20372;-82
2024/03/20 08:42:05;;;;;;;15.03;9.90;;;;;;;;;;5094210;28;20419;-82
2024/03/20 08:44:31;;;;;;;12.07;10.88;;;;;;;;;;5093585;28;20374;-82
2024/03/20 08:46:57;;;;;;;14.02;11.57;;;;;;;;;;5093963;28;20378;-82
2024/03/20 08:49:23;;;;;;;13.30;10.90;;;;;;;;;;5094081;28;20378;-82
2024/03/20 08:51:51;;;;;;;12.35;11.05;;;;;;;;;;5094001;28;20421;-82
2024/03/20 08:54:18;;;;;;;12.85;10.38;;;;;;;;;;5094077;28;20447;-82
2024/03/20 08:56:44;;;;;;;13.32;10.25;;;;;;;;;;5093876;28;20472;-82
2024/03/20 08:59:10;;;;;;;8.52;7.72;;;;;;;;;;5093469;28;20807;-82
2024/03/20 09:01:36;;;;;;;12.40;8.50;;;;;;;;;;5094075;28;20467;-82
2024/03/20 09:04:02;;;;;;;9.88;8.15;;;;;;;;;;5093656;28;20389;-82
2024/03/20 09:06:29;;;;;;;9.73;8.32;;;;;;;;;;5093657;28;20366;-82
2024/03/20 09:08:55;;;;;;;11.35;9.20;;;;;;;;;;5093407;28;20426;-82
2024/03/20 09:11:21;;;;;;;8.77;7.93;;;;;;;;;;5093953;28;20872;-82
2024/03/20 09:13:48;;;;;;;10.63;9.30;;;;;;;;;;5093782;28;20382;-82
2024/03/20 09:16:14;;;;;;;11.77;9.65;;;;;;;;;;5093350;28;20374;-82
2024/03/20 09:18:41;;;;;;;12.02;9.52;;;;;;;;;;5093999;28;20374;-82
2024/03/20 09:21:07;;;;;;;9.18;8.20;;;;;;;;;;5093469;28;20402;-82
2024/03/20 09:23:33;;;;;;;9.30;8.30;;;;;;;;;;5093329;28;20719;-82
2024/03/20 09:25:59;;;;;;;11.05;9.30;;;;;;;;;;5093438;28;20468;-82
2024/03/20 09:28:25;;;;;;;9.90;8.45;;;;;;;;;;5092632;28;20456;-82
2024/03/20 09:30:51;;;;;;;9.70;8.70;;;;;;;;;;5093669;28;20441;-82
2024/03/20 09:33:17;;;;;;;7.55;6.72;;;;;;;;;;5107851;28;20410;-82
2024/03/20 09:35:43;;;;;;;6.85;6.25;;;;;;;;;;5093491;28;20431;-82
2024/03/20 09:38:09;;;;;;;6.82;6.13;;;;;;;;;;5093174;28;20417;-82
2024/03/20 09:40:35;;;;;;;7.60;6.53;;;;;;;;;;5093869;28;20382;-82
2024/03/20 09:43:02;;;;;;;7.95;6.82;;;;;;;;;;5093366;28;20382;-82
2024/03/20 09:45:28;;;;;;;8.10;6.70;;;;;;;;;;5092789;28;20417;-82
2024/03/20 09:47:55;;;;;;;7.95;7.00;;;;;;;;;;5093533;28;20389;-82
2024/03/20 09:50:23;;;;;;;9.27;6.90;;;;;;;;;;5092993;28;20839;-82
2024/03/20 09:52:50;;;;;;;8.82;6.90;;;;;;;;;;5093398;28;20412;-82
2024/03/20 09:55:16;;;;;;;8.75;7.78;;;;;;;;;;5093516;28;20387;-82
2024/03/20 09:57:43;;;;;;;8.15;6.82;;;;;;;;;;5096635;28;20370;-82
2024/03/20 10:00:17;;;;;;;7.70;6.47;;;;;;;;;;5111077;28;20411;-82
2024/03/20 10:02:47;;;;;;;7.82;6.40;;;;;;;;;;5097342;28;20378;-82
2024/03/20 10:05:13;;;;;;;7.90;7.10;;;;;;;;;;5110574;28;20399;-82
2024/03/20 10:07:40;;;;;;;8.55;7.55;;;;;;;;;;5096593;28;20416;-82
2024/03/20 10:10:08;;;;;;;9.10;7.22;;;;;;;;;;5096977;28;20386;-82
2024/03/20 10:12:34;;;;;;;8.77;7.22;;;;;;;;;;5096752;28;20417;-84
2024/03/20 10:15:05;;;;;;;9.75;7.78;;;;;;;;;;5079066;28;20383;-84
2024/03/20 10:17:34;;;;;;;10.68;8.55;;;;;;;;;;5096552;28;20456;-81
2024/03/20 10:20:00;;;;;;;7.60;6.45;;;;;;;;;;5096676;28;20740;-83
2024/03/20 10:22:26;;;;;;;6.10;5.18;;;;;;;;;;5097242;28;20394;-83
2024/03/20 10:24:52;;;;;;;7.22;5.72;;;;;;;;;;5095694;28;20439;-81
2024/03/20 10:27:18;;;;;;;5.60;4.90;;;;;;;;;;5093477;28;20921;-82
2024/03/20 10:29:44;;;;;;;5.47;4.57;;;;;;;;;;5114081;28;20376;-83
2024/03/20 10:32:11;;;;;;;5.78;4.75;;;;;;;;;;5113786;28;20400;-83
2024/03/20 10:34:38;;;;;;;4.75;4.25;;;;;;;;;;5102834;28;20439;-83
2024/03/20 10:37:06;;;;;;;3.95;3.65;;;;;;;;;;5096846;28;20445;-83
2024/03/20 10:39:34;;;;;;;5.60;4.05;;;;;;;;;;5096613;28;20385;-83
2024/03/20 10:42:02;;;;;;;3.88;3.50;;;;;;;;;;5097374;28;20840;-81
2024/03/20 10:44:29;;;;;;;5.47;3.47;;;;;;;;;;5097224;28;20386;-81
2024/03/20 10:46:56;;;;;;;4.25;3.63;;;;;;;;;;5097023;28;20378;-81
2024/03/20 10:49:23;;;;;;;4.10;3.70;;;;;;;;;;5097546;28;20382;-82
2024/03/20 10:51:50;;;;;;;4.53;3.85;;;;;;;;;;5097491;28;20501;-82
2024/03/20 10:54:17;;;;;;;3.78;3.40;;;;;;;;;;5097385;28;20382;-82
2024/03/20 10:56:46;;;;;;;5.68;3.78;;;;;;;;;;5095716;28;20744;-82
2024/03/20 10:59:16;;;;;;;3.50;3.20;;;;;;;;;;5097221;28;20412;-82
2024/03/20 11:02:01;;;;;;;3.65;3.35;;;;;;;;;;5096818;28;20871;-82
2024/03/20 11:04:31;;;;;;;4.20;3.67;;;;;;;;;;5097079;28;20367;-82
2024/03/20 11:06:58;;;;;;;3.75;3.20;;;;;;;;;;5096986;28;20374;-82
2024/03/20 11:09:26;;;;;;;3.60;3.30;;;;;;;;;;5096817;28;20382;-81
2024/03/20 11:11:52;;;;;;;3.83;3.40;;;;;;;;;;5095947;28;20496;-82
2024/03/20 11:14:29;;;;;;;6.07;3.50;;;;;;;;;;5097026;28;20385;-81
2024/03/20 11:16:56;;;;;;;3.83;3.00;;;;;;;;;;5096737;28;20463;-81
2024/03/20 11:19:22;;;;;;;4.90;3.30;;;;;;;;;;5096284;28;20380;-82
2024/03/20 11:21:48;;;;;;;2.95;2.67;;;;;;;;;;5096438;28;20806;-81
2024/03/20 11:24:14;;;;;;;3.45;2.92;;;;;;;;;;5096226;28;20381;-82
2024/03/20 11:26:41;;;;;;;3.33;2.80;;;;;;;;;;5095605;28;20447;-82
2024/03/20 11:29:10;;;;;;;3.00;2.70;;;;;;;;;;5095745;28;20455;-81
2024/03/20 11:31:36;;;;;;;3.22;2.92;;;;;;;;;;5098060;28;20425;-82
2024/03/20 11:34:04;;;;;;;3.28;2.80;;;;;;;;;;5106574;28;20457;-82
2024/03/20 11:36:30;;;;;;;5.00;3.00;;;;;;;;;;5095877;28;20394;-82
2024/03/20 11:38:56;;;;;;;3.30;2.88;;;;;;;;;;5095346;28;20383;-82
2024/03/20 11:41:22;;;;;;;3.97;2.65;;;;;;;;;;5095877;28;20386;-82
2024/03/20 11:43:48;;;;;;;5.25;3.10;;;;;;;;;;5095448;28;20398;-82
2024/03/20 11:46:15;;;;;;;3.75;2.78;;;;;;;;;;5077597;28;20764;-82
2024/03/20 11:48:45;;;;;;;3.95;2.58;;;;;;;;;;5095376;28;20387;-82
2024/03/20 11:51:12;;;;;;;3.47;2.97;;;;;;;;;;5096037;28;20382;-82
2024/03/20 11:53:38;;;;;;;2.67;2.47;;;;;;;;;;5095416;28;21059;-82
2024/03/20 11:56:05;;;;;;;3.67;3.10;;;;;;;;;;5095871;28;20390;-82
2024/03/20 11:58:34;;;;;;;3.58;2.80;;;;;;;;;;5095180;28;20461;-82
2024/03/20 12:01:05;;;;;;;3.45;2.83;;;;;;;;;;5094634;28;20461;-82
2024/03/20 12:03:31;;;;;;;3.78;3.10;;;;;;;;;;5077504;28;20386;-82
2024/03/20 12:06:16;;;;;;;5.00;3.90;;;;;;;;;;5095708;28;20450;-82
2024/03/20 12:08:43;;;;;;;5.00;4.22;;;;;;;;;;5095205;28;20782;-82
2024/03/20 12:11:24;;;;;;;7.15;4.65;;;;;;;;;;5095230;28;20386;-82
2024/03/20 12:13:52;;;;;;;4.20;3.60;;;;;;;;;;5094699;28;20465;-82
2024/03/20 12:16:18;;;;;;;4.75;3.58;;;;;;;;;;5095249;28;20705;-82
2024/03/20 12:18:44;;;;;;;5.40;3.27;;;;;;;;;;5094202;28;20381;-82
2024/03/20 12:21:13;;;;;;;3.30;2.80;;;;;;;;;;5095055;28;20378;-82
2024/03/20 12:23:39;;;;;;;3.95;3.55;;;;;;;;;;5094806;28;20902;-82
2024/03/20 12:26:05;;;;;;;3.60;2.80;;;;;;;;;;5095024;28;20382;-82
2024/03/20 12:28:32;;;;;;;3.63;3.03;;;;;;;;;;5094621;28;20378;-82
2024/03/20 12:30:58;;;;;;;4.97;3.70;;;;;;;;;;5094973;28;20500;-82
2024/03/20 12:33:25;;;;;;;5.90;4.93;;;;;;;;;;5103008;28;20414;-82
2024/03/20 12:35:52;;;;;;;6.35;5.00;;;;;;;;;;5094450;28;20378;-82
2024/03/20 12:38:18;;;;;;;6.22;4.20;;;;;;;;;;5094266;28;20403;-82
2024/03/20 12:40:44;;;;;;;4.77;3.83;;;;;;;;;;5094747;28;20378;-82
2024/03/20 12:43:14;;;;;;;4.40;3.40;;;;;;;;;;5094303;28;20462;-82
2024/03/20 12:45:40;;;;;;;2.90;2.40;;;;;;;;;;5093841;28;20382;-82
2024/03/20 12:48:16;;;;;;;4.57;2.35;;;;;;;;;;5094605;28;20374;-82
2024/03/20 12:50:42;;;;;;;3.30;2.85;;;;;;;;;;5094608;28;20701;-82
2024/03/20 12:53:17;;;;;;;3.05;2.50;;;;;;;;;;5094493;28;20488;-82
2024/03/20 12:55:43;;;;;;;2.10;1.90;;;;;;;;;;5080460;28;20895;-82
2024/03/20 12:58:11;;;;;;;3.57;2.50;;;;;;;;;;5094698;28;20516;-82
2024/03/20 13:00:37;;;;;;;3.63;2.42;;;;;;;;;;5094190;28;20721;-82
2024/03/20 13:03:04;;;;;;;3.78;2.72;;;;;;;;;;5094643;28;20439;-82
2024/03/20 13:05:30;;;;;;;3.05;2.20;;;;;;;;;;5093856;28;20869;-82
2024/03/20 13:07:56;;;;;;;4.30;3.20;;;;;;;;;;5093946;28;20911;-82
2024/03/20 13:10:23;;;;;;;5.40;3.80;;;;;;;;;;5093611;28;20384;-82
2024/03/20 13:12:49;;;;;;;6.33;5.03;;;;;;;;;;5093944;28;20907;-82
2024/03/20 13:15:16;;;;;;;8.15;5.55;;;;;;;;;;5094336;28;20457;-82
2024/03/20 13:17:42;;;;;;;6.68;4.97;;;;;;;;;;5093847;28;20399;-82
2024/03/20 13:20:12;;;;;;;6.30;3.90;;;;;;;;;;5094108;28;20366;-82
2024/03/20 13:22:39;;;;;;;4.13;2.67;;;;;;;;;;5094100;28;20373;-82
2024/03/20 13:25:06;;;;;;;2.45;1.52;;;;;;;;;;5093602;28;20393;-82
2024/03/20 13:27:32;;;;;;;1.08;0.98;;;;;;;;;;5093066;28;20382;-82
2024/03/20 13:30:01;;;;;;;1.58;1.20;;;;;;;;;;5101970;28;20387;-82
2024/03/20 13:32:33;;;;;;;4.00;1.30;;;;;;;;;;5114614;28;20443;-82
2024/03/20 13:35:19;;;;;;;2.05;1.20;;;;;;;;;;5101133;28;20385;-82
2024/03/20 13:37:45;;;;;;;1.55;1.10;;;;;;;;;;5099395;28;20382;-82
2024/03/20 13:40:36;;;;;;;1.33;1.10;;;;;;;;;;5098993;28;20380;-82
2024/03/20 13:45:53;;;;;;;2.00;1.30;;;;;;;;;;5086778;28;20370;-82
2024/03/20 13:48:19;;;;;;;3.38;2.50;;;;;;;;;;5099951;28;20389;-82
2024/03/20 13:50:45;;;;;;;1.33;0.90;;;;;;;;;;5099824;28;20784;-82
2024/03/20 13:53:11;;;;;;;2.70;0.90;;;;;;;;;;5099294;28;20547;-82
2024/03/20 13:55:37;;;;;;;1.33;0.90;;;;;;;;;;5114027;28;20465;-82
2024/03/20 13:58:03;;;;;;;1.73;1.15;;;;;;;;;;5099408;28;20406;-82
2024/03/20 14:00:29;;;;;;;1.90;1.02;;;;;;;;;;5098410;28;20777;-82
2024/03/20 14:02:56;;;;;;;2.45;0.80;;;;;;;;;;5099144;28;20382;-82
2024/03/20 14:05:22;;;;;;;1.10;0.98;;;;;;;;;;5099255;28;20392;-82
2024/03/20 14:07:48;;;;;;;1.10;0.90;;;;;;;;;;5081361;28;20429;-82
2024/03/20 14:10:15;;;;;;;1.80;1.10;;;;;;;;;;5099217;28;20505;-82
2024/03/20 14:12:41;;;;;;;1.35;0.90;;;;;;;;;;5099059;28;20398;-82
2024/03/20 14:15:15;;;;;;;1.48;1.00;;;;;;;;;;5099271;28;20370;-82
2024/03/20 14:17:41;;;;;;;1.17;0.95;;;;;;;;;;5098380;28;20429;-82
2024/03/20 14:20:19;;;;;;;5.05;1.02;;;;;;;;;;5098510;28;20386;-82
2024/03/20 14:22:45;;;;;;;2.20;1.10;;;;;;;;;;5098625;28;20382;-82
2024/03/20 14:25:20;;;;;;;2.20;1.00;;;;;;;;;;5098421;28;20469;-82
2024/03/20 14:27:47;;;;;;;1.90;0.90;;;;;;;;;;5098860;28;20413;-82
2024/03/20 14:30:15;;;;;;;0.95;0.70;;;;;;;;;;5096958;28;20828;-82
2024/03/20 14:32:41;;;;;;;1.10;0.80;;;;;;;;;;5096965;28;20459;-82
2024/03/20 14:35:10;;;;;;;1.40;0.85;;;;;;;;;;5097613;28;20423;-82
2024/03/20 14:37:38;;;;;;;2.30;0.75;;;;;;;;;;5097947;28;20453;-82
2024/03/20 14:40:04;;;;;;;1.50;1.20;;;;;;;;;;5097685;28;20370;-82
2024/03/20 14:42:30;;;;;;;1.67;0.98;;;;;;;;;;5097549;28;20747;-82